Terminal Aerodrome Forecast
Issued by NWS

Home | Current Version | Previous Version | Text Only | Print | Product List | Glossary On
Versions: 1 2 3 4 5 6 7 8 9 10 11 12 13 14 15 16 17 18 19 20 21 22 23 24 25 26 27 28 29 30 31 32 33 34 35 36 37 38 39 40
000
FTUS45 KREV 230138 AAB
TAFRNO
TAF AMD
KRNO 230138Z 2302/2324 VRB05KT 1SM -SN BR SCT012 OVC014
      TEMPO 2302/2305 1/4SM +SN VV005
     FM230800 28010G18KT P6SM VCSH FEW020 BKN030
     FM231200 30006KT P6SM SCT035 BKN150=

USA.gov is the U.S. government's official web portal to all federal, state and local government web resources and services.